createdAt,value
2017-01-22T00:01:33.579Z,93.89
2017-01-22T00:06:30.990Z,93.04
2017-01-22T00:11:27.028Z,93.61
2017-01-22T00:16:24.278Z,93.23
2017-01-22T00:21:21.368Z,94.32
2017-01-22T00:26:17.831Z,94.51
2017-01-22T00:31:14.024Z,94.89
2017-01-22T00:36:11.025Z,94.32
2017-01-22T00:41:07.303Z,94.60
2017-01-22T00:46:03.666Z,94.60
2017-01-22T00:51:00.816Z,94.70
2017-01-22T00:55:57.177Z,94.51
2017-01-22T01:00:53.442Z,95.64
2017-01-22T01:05:49.964Z,95.73
2017-01-22T01:10:46.202Z,95.83
2017-01-22T01:15:42.564Z,95.07
2017-01-22T01:20:38.981Z,94.41
2017-01-22T01:25:35.400Z,95.36
2017-01-22T01:30:32.419Z,95.07
2017-01-22T01:35:28.740Z,94.60
2017-01-22T01:40:24.877Z,95.17
2017-01-22T01:45:21.229Z,95.64
2017-01-22T01:50:17.877Z,96.11
2017-01-22T01:55:14.012Z,96.39
2017-01-22T02:00:10.200Z,96.39
2017-01-22T02:05:06.556Z,96.39
2017-01-22T02:10:02.831Z,96.68
2017-01-22T02:14:59.309Z,97.53
2017-01-22T02:19:56.073Z,97.91
2017-01-22T02:24:52.508Z,98.10
2017-01-22T02:29:49.673Z,98.75
2017-01-22T02:34:45.790Z,98.75
2017-01-22T02:39:43.189Z,99.04
2017-01-22T02:44:39.228Z,98.75
2017-01-22T02:49:36.555Z,97.72
2017-01-22T02:54:32.779Z,98.47
2017-01-22T02:59:30.165Z,99.08
2017-01-22T03:04:25.763Z,99.32
2017-01-22T03:09:22.350Z,99.55
2017-01-22T03:14:18.185Z,99.98
2017-01-22T03:19:14.606Z,99.37
2017-01-22T03:24:10.797Z,99.46
2017-01-22T03:29:06.862Z,99.99
2017-01-22T03:34:03.412Z,99.99
2017-01-22T03:38:59.786Z,99.99
2017-01-22T03:43:55.935Z,99.99
2017-01-22T03:48:52.860Z,99.99
2017-01-22T03:53:49.080Z,99.99
2017-01-22T03:58:45.353Z,99.99
2017-01-22T04:03:41.800Z,99.99
2017-01-22T04:08:37.824Z,99.99
2017-01-22T04:13:34.149Z,99.99
2017-01-22T04:18:30.533Z,99.99
2017-01-22T04:23:27.034Z,99.99
2017-01-22T04:28:23.302Z,99.99
2017-01-22T04:33:19.581Z,99.99
2017-01-22T04:38:15.922Z,99.99
2017-01-22T04:43:13.027Z,99.99
2017-01-22T04:48:09.211Z,99.99
2017-01-22T04:53:05.594Z,99.99
2017-01-22T04:58:02.212Z,99.99
2017-01-22T05:02:58.483Z,99.99
2017-01-22T05:07:57.245Z,99.99
2017-01-22T05:12:53.072Z,99.99
2017-01-22T05:17:49.252Z,99.99
2017-01-22T05:22:45.719Z,99.99
2017-01-22T05:27:42.127Z,99.99
2017-01-22T05:32:39.025Z,99.99
2017-01-22T05:37:35.756Z,99.99
2017-01-22T05:42:34.505Z,99.99
2017-01-22T05:47:30.095Z,99.99
2017-01-22T05:52:26.181Z,99.99
2017-01-22T05:57:22.014Z,99.99
2017-01-22T06:02:18.379Z,99.99
2017-01-22T06:07:14.491Z,99.99
2017-01-22T06:12:11.032Z,99.99
2017-01-22T06:17:08.564Z,99.99
2017-01-22T06:22:04.375Z,99.99
2017-01-22T06:27:00.663Z,99.99
2017-01-22T06:31:56.852Z,99.99
2017-01-22T06:36:53.287Z,99.99
2017-01-22T06:41:50.347Z,99.99
2017-01-22T06:46:46.421Z,99.99
2017-01-22T06:51:42.642Z,99.99
2017-01-22T06:56:38.812Z,99.99
2017-01-22T07:01:35.703Z,99.99
2017-01-22T07:06:32.135Z,99.99
2017-01-22T07:11:29.050Z,99.99
2017-01-22T07:16:25.294Z,99.99
2017-01-22T07:21:22.273Z,99.99
2017-01-22T07:26:20.057Z,99.99
2017-01-22T07:31:17.209Z,99.99
2017-01-22T07:36:13.606Z,99.99
2017-01-22T07:41:10.735Z,99.99
2017-01-22T07:46:06.751Z,99.99
2017-01-22T07:51:02.775Z,99.99
2017-01-22T07:55:59.096Z,99.99
2017-01-22T08:00:55.762Z,99.99
2017-01-22T08:05:52.254Z,99.99
2017-01-22T08:10:48.656Z,99.99
2017-01-22T08:15:44.864Z,99.99
2017-01-22T08:20:41.746Z,99.99
2017-01-22T08:25:38.069Z,99.99
2017-01-22T08:30:34.286Z,99.99
2017-01-22T08:35:30.662Z,99.99
2017-01-22T08:40:27.006Z,99.99
2017-01-22T08:45:24.549Z,99.99
2017-01-22T08:50:21.093Z,99.99
2017-01-22T08:55:17.652Z,99.99
2017-01-22T09:00:14.044Z,99.99
2017-01-22T09:05:10.462Z,99.99
2017-01-22T09:10:06.735Z,99.99
2017-01-22T09:15:03.405Z,99.98
2017-01-22T09:20:00.450Z,99.75
2017-01-22T09:24:56.624Z,99.65
2017-01-22T09:29:53.110Z,99.65
2017-01-22T09:34:49.317Z,98.80
2017-01-22T09:39:45.844Z,97.77
2017-01-22T09:44:42.207Z,95.17
2017-01-22T09:49:38.627Z,92.38
2017-01-22T09:54:35.118Z,90.58
2017-01-22T09:59:31.910Z,91.43
2017-01-22T10:04:28.393Z,92.43
2017-01-22T10:09:25.447Z,91.81
2017-01-22T10:14:22.510Z,89.87
2017-01-22T10:19:18.967Z,87.51
2017-01-22T10:24:15.222Z,89.54
2017-01-22T10:29:11.726Z,90.16
2017-01-22T10:34:11.246Z,88.74
2017-01-22T10:39:07.041Z,89.64
2017-01-22T10:44:03.406Z,90.20
2017-01-22T10:49:00.759Z,90.11
2017-01-22T10:53:56.847Z,89.69
2017-01-22T10:58:53.186Z,88.83
2017-01-22T11:03:49.597Z,85.00
2017-01-22T11:08:47.638Z,80.02
2017-01-22T11:13:44.106Z,80.87
2017-01-22T11:18:40.700Z,77.97
2017-01-22T11:23:37.562Z,73.84
2017-01-22T11:28:34.378Z,77.65
2017-01-22T11:33:31.769Z,76.93
2017-01-22T11:38:28.093Z,74.56
2017-01-22T11:43:24.828Z,70.37
2017-01-22T11:48:21.470Z,61.01
2017-01-22T11:53:18.224Z,56.29
2017-01-22T11:58:14.942Z,57.50
2017-01-22T12:03:11.151Z,58.26
2017-01-22T12:08:08.359Z,58.51
2017-01-22T12:13:04.444Z,57.47
2017-01-22T12:18:00.794Z,61.71
2017-01-22T12:22:57.254Z,59.05
2017-01-22T12:27:53.476Z,60.25
2017-01-22T12:32:49.882Z,62.21
2017-01-22T12:37:46.490Z,61.65
2017-01-22T12:42:42.946Z,61.46
2017-01-22T12:47:39.246Z,64.01
2017-01-22T12:52:35.644Z,64.87
2017-01-22T12:57:31.724Z,64.11
2017-01-22T13:02:28.079Z,66.09
2017-01-22T13:07:25.028Z,66.47
2017-01-22T13:12:21.478Z,68.27
2017-01-22T13:17:17.686Z,66.28
2017-01-22T13:22:13.951Z,66.00
2017-01-22T13:27:09.997Z,66.38
2017-01-22T13:32:07.823Z,67.33
2017-01-22T13:37:03.742Z,66.38
2017-01-22T13:42:00.735Z,67.05
2017-01-22T13:46:57.073Z,66.57
2017-01-22T13:51:53.381Z,66.38
2017-01-22T13:56:52.321Z,66.57
2017-01-22T14:01:48.436Z,67.05
2017-01-22T14:06:44.802Z,68.81
2017-01-22T14:11:40.828Z,68.37
2017-01-22T14:16:37.186Z,67.05
2017-01-22T14:21:33.655Z,66.86
2017-01-22T14:26:29.961Z,65.72
2017-01-22T14:31:27.378Z,67.43
2017-01-22T14:36:23.359Z,67.61
2017-01-22T14:41:19.613Z,68.71
2017-01-22T14:46:15.859Z,69.00
2017-01-22T14:51:11.902Z,70.51
2017-01-22T14:56:08.649Z,72.03
2017-01-22T15:01:05.132Z,73.64
2017-01-22T15:06:01.416Z,74.87
2017-01-22T15:10:57.792Z,76.29
2017-01-22T15:15:53.552Z,76.67
2017-01-22T15:20:50.027Z,78.46
2017-01-22T15:25:46.319Z,79.85
2017-01-22T15:30:42.592Z,80.60
2017-01-22T15:35:39.370Z,81.17
2017-01-22T15:40:35.427Z,82.21
2017-01-22T15:45:31.528Z,81.55
2017-01-22T15:50:27.734Z,82.97
2017-01-22T15:55:24.849Z,83.30
2017-01-22T16:00:21.125Z,84.34
2017-01-22T16:05:17.243Z,85.66
2017-01-22T16:10:13.625Z,86.04
2017-01-22T16:15:09.740Z,87.27
2017-01-22T16:20:06.007Z,87.74
2017-01-22T16:25:02.480Z,88.27
2017-01-22T16:29:58.969Z,89.59
2017-01-22T16:34:56.196Z,90.35
2017-01-22T16:39:52.396Z,90.54
2017-01-22T16:44:49.498Z,91.39
2017-01-22T16:49:45.951Z,91.48
2017-01-22T16:54:42.135Z,91.58
2017-01-22T16:59:38.571Z,92.71
2017-01-22T17:04:35.096Z,92.71
2017-01-22T17:09:32.192Z,92.90
2017-01-22T17:14:29.296Z,93.47
2017-01-22T17:19:25.536Z,93.75
2017-01-22T17:24:22.869Z,93.84
2017-01-22T17:29:19.220Z,94.03
2017-01-22T17:34:15.530Z,94.60
2017-01-22T17:39:11.811Z,95.45
2017-01-22T17:44:08.090Z,94.22
2017-01-22T17:49:04.312Z,94.22
2017-01-22T17:54:03.382Z,94.03
2017-01-22T17:58:59.184Z,94.22
2017-01-22T18:03:57.797Z,94.60
2017-01-22T18:08:53.453Z,94.51
2017-01-22T18:13:49.964Z,94.41
2017-01-22T18:18:46.296Z,94.18
2017-01-22T18:23:42.443Z,94.56
2017-01-22T18:28:39.551Z,94.74
2017-01-22T18:33:36.609Z,94.74
2017-01-22T18:38:32.905Z,95.40
2017-01-22T18:43:29.227Z,95.31
2017-01-22T18:48:25.468Z,95.68
2017-01-22T18:53:22.285Z,95.97
2017-01-22T18:58:19.242Z,95.68
2017-01-22T19:03:15.258Z,95.97
2017-01-22T19:08:11.531Z,96.06
2017-01-22T19:13:07.750Z,96.25
2017-01-22T19:18:04.020Z,96.91
2017-01-22T19:23:00.381Z,96.82
2017-01-22T19:27:56.831Z,97.48
2017-01-22T19:32:53.160Z,96.82
2017-01-22T19:37:49.302Z,96.44
2017-01-22T19:42:45.887Z,95.87
2017-01-22T19:47:42.497Z,96.73
2017-01-22T19:52:39.339Z,96.25
2017-01-22T19:57:36.283Z,97.01
2017-01-22T20:02:32.572Z,97.39
2017-01-22T20:07:29.871Z,97.01
2017-01-22T20:12:25.861Z,95.97
2017-01-22T20:17:22.811Z,96.86
2017-01-22T20:22:19.170Z,97.43
2017-01-22T20:27:15.484Z,97.91
2017-01-22T20:32:11.484Z,98.10
2017-01-22T20:37:07.959Z,98.10
2017-01-22T20:42:04.352Z,97.91
2017-01-22T20:47:00.632Z,98.10
2017-01-22T20:51:56.927Z,98.38
2017-01-22T20:56:53.024Z,98.85
2017-01-22T21:01:49.304Z,99.32
2017-01-22T21:06:45.681Z,99.88
2017-01-22T21:11:42.264Z,99.51
2017-01-22T21:16:38.094Z,99.60
2017-01-22T21:21:35.106Z,99.70
2017-01-22T21:26:31.387Z,99.51
2017-01-22T21:31:27.619Z,98.94
2017-01-22T21:36:23.973Z,99.88
2017-01-22T21:41:20.471Z,99.79
2017-01-22T21:46:16.671Z,99.98
2017-01-22T21:51:13.164Z,99.99
2017-01-22T21:56:09.430Z,99.99
2017-01-22T22:01:05.524Z,99.99
2017-01-22T22:06:02.130Z,99.99
2017-01-22T22:10:59.554Z,99.99
2017-01-22T22:15:55.271Z,99.99
2017-01-22T22:20:51.996Z,99.99
2017-01-22T22:25:48.149Z,99.99
2017-01-22T22:30:44.423Z,99.99
2017-01-22T22:35:40.742Z,99.99
2017-01-22T22:40:38.173Z,99.99
2017-01-22T22:45:34.190Z,99.99
2017-01-22T22:50:31.325Z,99.99
2017-01-22T22:55:27.693Z,99.99
2017-01-22T23:00:24.768Z,99.99
2017-01-22T23:05:21.101Z,99.99
2017-01-22T23:10:17.288Z,99.99
2017-01-22T23:15:14.577Z,99.99
2017-01-22T23:20:10.442Z,99.99
2017-01-22T23:25:07.359Z,99.99
2017-01-22T23:30:03.194Z,99.99
2017-01-22T23:34:59.646Z,99.99
2017-01-22T23:39:55.738Z,99.99
2017-01-22T23:44:52.612Z,99.99
2017-01-22T23:49:48.785Z,99.99
2017-01-22T23:54:44.922Z,99.99
2017-01-22T23:59:41.232Z,99.99
